Time;durP1;ratioP1;P1;durP2;ratioP2;P2;SDS_P1;SDS_P2;PMS_P1;PMS_P2;Temp;Humidity;BMP_temperature;BMP_pressure;BME280_temperature;BME280_humidity;BME280_pressure;Samples;Min_cycle;Max_cycle;Signal;HPM_P1;HPM_P2
2022/05/07 00:04:08;;;;;;;8.93;4.60;;;;;;;17.70;53.46;100218.84;7674400;32;39402;-72
2022/05/07 00:08:24;;;;;;;8.40;5.22;;;;;;;17.52;54.16;100215.06;7685592;32;39890;-73
2022/05/07 00:12:41;;;;;;;8.43;5.40;;;;;;;17.49;54.14;100202.75;7681020;32;38783;-74
2022/05/07 00:21:31;;;;;;;10.55;5.45;;;;;;;17.40;54.02;100208.16;7659564;32;39028;-74
2022/05/07 00:25:47;;;;;;;10.98;5.45;;;;;;;17.15;55.19;100208.66;7658347;32;39783;-73
2022/05/07 00:30:07;;;;;;;10.93;5.47;;;;;;;17.20;54.86;100203.06;7658585;32;38525;-74
2022/05/07 00:34:24;;;;;;;10.10;5.60;;;;;;;17.50;53.95;100204.34;7658735;32;37300;-74
2022/05/07 00:38:40;;;;;;;8.98;5.05;;;;;;;17.49;54.17;100199.13;7659159;32;39373;-74
2022/05/07 00:42:56;;;;;;;7.72;5.18;;;;;;;17.32;54.81;100202.56;7658016;32;39861;-74
2022/05/07 00:47:22;;;;;;;10.50;5.90;;;;;;;17.54;54.18;100201.78;7658406;32;37962;-74
2022/05/07 00:51:38;;;;;;;11.45;5.68;;;;;;;17.61;53.93;100194.75;7659011;32;37100;-73
2022/05/07 00:55:55;;;;;;;9.32;5.68;;;;;;;17.49;54.41;100201.91;7658342;32;40012;-73
2022/05/07 01:00:12;;;;;;;7.90;5.43;;;;;;;17.32;54.88;100191.53;7658473;32;39857;-74
2022/05/07 01:04:28;;;;;;;12.13;5.78;;;;;;;17.55;53.78;100195.97;7935127;27;37890;-74
2022/05/07 01:08:47;;;;;;;10.02;5.62;;;;;;;17.46;54.25;100189.56;7736462;32;37829;-74
2022/05/07 01:13:04;;;;;;;12.30;5.15;;;;;;;17.29;54.77;100192.13;7738645;32;38439;-74
2022/05/07 01:17:20;;;;;;;10.32;5.18;;;;;;;17.41;54.38;100184.97;7727127;32;40783;-74
2022/05/07 01:21:36;;;;;;;8.85;5.18;;;;;;;17.68;53.16;100182.47;7715019;32;38028;-74
2022/05/07 01:25:56;;;;;;;9.73;5.53;;;;;;;17.36;53.86;100187.81;7718226;32;37137;-73
2022/05/07 01:30:12;;;;;;;7.65;5.50;;;;;;;17.41;53.29;100186.91;7737334;32;39260;-74
2022/05/07 01:34:28;;;;;;;7.12;5.15;;;;;;;17.13;54.85;100177.88;7722728;32;39943;-73
2022/05/07 01:38:48;;;;;;;6.45;4.60;;;;;;;17.02;55.09;100179.97;7714481;32;38761;-73
2022/05/07 01:43:05;;;;;;;10.23;5.45;;;;;;;17.34;53.65;100176.31;7721049;32;36928;-74
2022/05/07 01:51:56;;;;;;;8.77;5.55;;;;;;;16.96;54.29;100170.19;7728970;32;40780;-74
2022/05/07 01:56:12;;;;;;;6.72;4.65;;;;;;;16.88;55.34;100168.97;7736353;32;37621;-74
2022/05/07 02:00:29;;;;;;;9.43;5.37;;;;;;;17.43;53.07;100165.38;7738097;32;37330;-74
2022/05/07 02:04:45;;;;;;;7.90;5.03;;;;;;;17.22;53.10;100168.56;7725985;32;40391;-74
2022/05/07 02:09:01;;;;;;;7.78;4.68;;;;;;;17.50;51.83;100171.28;7729103;32;39835;-73
2022/05/07 02:13:17;;;;;;;10.77;5.30;;;;;;;17.45;51.50;100174.12;7737250;32;37849;-74
2022/05/07 02:17:33;;;;;;;7.57;5.07;;;;;;;17.47;51.03;100177.41;7736972;32;37076;-74
2022/05/07 02:21:49;;;;;;;7.28;4.75;;;;;;;17.42;51.03;100180.28;7737578;32;39023;-74
2022/05/07 02:26:05;;;;;;;6.53;4.97;;;;;;;17.49;50.72;100169.66;7728663;32;40500;-74
2022/05/07 02:30:21;;;;;;;9.43;5.25;;;;;;;17.40;50.75;100177.00;7736864;32;37566;-74
2022/05/07 02:34:37;;;;;;;7.65;4.87;;;;;;;17.69;50.22;100170.31;7736921;32;37605;-72
2022/05/07 02:38:53;;;;;;;8.07;5.05;;;;;;;17.75;50.08;100171.84;7737496;32;39971;-74
2022/05/07 02:43:10;;;;;;;9.65;4.82;;;;;;;17.87;50.22;100174.06;7728449;32;39684;-74
2022/05/07 02:47:27;;;;;;;7.65;4.87;;;;;;;17.69;50.75;100173.09;7736515;32;38773;-74
2022/05/07 02:51:43;;;;;;;9.02;5.25;;;;;;;17.73;50.44;100174.09;7736808;32;37126;-74
2022/05/07 02:55:59;;;;;;;7.30;5.00;;;;;;;17.51;50.95;100177.62;7710506;32;39282;-74
2022/05/07 03:00:16;;;;;;;7.10;4.90;;;;;;;17.59;50.96;100188.75;7709904;32;40072;-74
2022/05/07 03:04:32;;;;;;;11.80;5.22;;;;;;;17.65;51.13;100176.44;7712028;32;37947;-74
2022/05/07 03:08:48;;;;;;;10.23;5.57;;;;;;;17.51;51.46;100183.13;7718541;32;37199;-74
2022/05/07 03:13:04;;;;;;;9.60;5.85;;;;;;;17.45;51.96;100180.50;7718995;32;40080;-73
2022/05/07 03:17:20;;;;;;;7.87;5.25;;;;;;;17.42;51.80;100180.28;7718335;32;40179;-73
2022/05/07 03:21:36;;;;;;;7.57;5.10;;;;;;;17.19;52.63;100182.94;7718415;32;37921;-74
2022/05/07 03:25:53;;;;;;;10.93;5.97;;;;;;;17.22;52.46;100176.81;7718216;32;38170;-74
2022/05/07 03:30:09;;;;;;;7.72;5.05;;;;;;;16.92;53.42;100191.19;7718417;32;39381;-73
2022/05/07 03:34:25;;;;;;;12.45;6.15;;;;;;;17.04;53.13;100186.00;7717929;32;40822;-74
2022/05/07 03:38:42;;;;;;;9.95;6.32;;;;;;;17.26;52.46;100180.63;7718043;32;37912;-73
2022/05/07 03:42:58;;;;;;;8.98;5.97;;;;;;;16.91;53.81;100186.81;7718074;32;37386;-75
2022/05/07 03:47:14;;;;;;;9.45;5.85;;;;;;;16.86;53.91;100190.47;7717674;32;39304;-73
2022/05/07 03:53:29;;;;;;;8.88;6.05;;;;;;;16.67;55.02;100196.84;7716249;32;40818;-74
2022/05/07 03:56:08;;;;;;;10.63;6.28;;;;;;;16.97;53.90;100191.09;7717707;32;37945;-74
2022/05/07 04:00:24;;;;;;;9.98;5.70;;;;;;;17.25;53.64;100198.25;7717401;32;37898;-73
2022/05/07 04:04:40;;;;;;;11.23;6.45;;;;;;;17.30;53.75;100189.06;7717320;32;39443;-74
2022/05/07 04:08:56;;;;;;;9.00;5.95;;;;;;;17.09;54.40;100196.91;7716868;32;40692;-74
2022/05/07 04:13:12;;;;;;;9.98;6.53;;;;;;;17.06;54.72;100201.09;7717093;32;38685;-73
2022/05/07 04:17:28;;;;;;;11.23;6.62;;;;;;;16.88;55.39;100207.50;7713136;32;37190;-74
2022/05/07 04:21:45;;;;;;;8.88;6.37;;;;;;;16.84;55.42;100210.06;7712508;32;39410;-74
2022/05/07 04:26:01;;;;;;;11.65;6.18;;;;;;;16.87;55.36;100212.22;7712255;32;39978;-74
2022/05/07 04:30:17;;;;;;;9.80;6.37;;;;;;;16.87;55.69;100211.41;7711871;32;37912;-73
2022/05/07 04:34:33;;;;;;;13.70;6.70;;;;;;;17.01;55.31;100216.94;7712314;32;37053;-73
2022/05/07 04:38:49;;;;;;;10.13;6.50;;;;;;;16.81;55.93;100216.13;7711966;32;40121;-74
2022/05/07 04:43:05;;;;;;;9.48;5.93;;;;;;;16.95;55.55;100218.94;7712087;32;40722;-74
2022/05/07 04:47:21;;;;;;;9.02;6.32;;;;;;;16.94;55.33;100230.28;7711705;32;37697;-74
2022/05/07 04:51:37;;;;;;;9.85;6.30;;;;;;;17.01;55.51;100227.94;7712176;32;36994;-74
2022/05/07 04:55:55;;;;;;;13.30;6.50;;;;;;;17.07;55.38;100232.22;7712758;32;38432;-74
2022/05/07 05:00:12;;;;;;;10.30;6.82;;;;;;;17.04;55.75;100235.56;7732457;32;40024;-74
2022/05/07 05:04:28;;;;;;;11.70;7.07;;;;;;;17.27;54.63;100225.50;7738418;32;37870;-74
2022/05/07 05:08:45;;;;;;;10.30;5.82;;;;;;;17.26;55.15;100232.97;7733688;32;37077;-74
2022/05/07 05:13:01;;;;;;;11.65;6.32;;;;;;;17.30;55.01;100240.59;7734404;32;39805;-74
2022/05/07 05:17:17;;;;;;;8.40;5.28;;;;;;;17.48;54.95;100233.34;7728449;32;39998;-74
2022/05/07 05:21:33;;;;;;;8.55;5.60;;;;;;;17.70;54.26;100232.63;7728883;32;38077;-74
2022/05/07 05:25:50;;;;;;;12.32;5.85;;;;;;;17.58;54.63;100244.97;7734782;32;37878;-74
2022/05/07 05:30:07;;;;;;;12.13;5.97;;;;;;;17.67;54.80;100242.31;7719101;32;40058;-73
2022/05/07 05:34:23;;;;;;;11.35;6.80;;;;;;;17.95;53.58;100248.62;7710381;32;39957;-74
2022/05/07 05:38:39;;;;;;;11.95;7.10;;;;;;;18.13;53.43;100246.03;7721112;32;38569;-74
2022/05/07 05:42:55;;;;;;;15.18;7.72;;;;;;;17.99;56.07;100254.34;7736197;32;37189;-74
2022/05/07 05:47:11;;;;;;;13.62;8.02;;;;;;;17.57;57.45;100259.88;7731832;32;39361;-72
2022/05/07 05:51:28;;;;;;;22.45;14.90;;;;;;;17.20;58.87;100252.66;7735695;32;40816;-73
2022/05/07 05:55:44;;;;;;;28.35;17.50;;;;;;;17.38;58.27;100256.41;7713536;32;38107;-73
2022/05/07 05:59:59;;;;;;;30.67;19.02;;;;;;;17.80;57.68;100252.50;7718378;32;38025;-83
2022/05/07 06:04:16;;;;;;;14.18;9.35;;;;;;;17.69;58.96;100255.78;7735806;32;39288;-74
2022/05/07 06:08:33;;;;;;;10.38;6.97;;;;;;;17.72;58.34;100252.44;7718767;32;40894;-74
2022/05/07 06:12:49;;;;;;;12.45;6.95;;;;;;;18.05;57.14;100253.09;7708345;32;38151;-74
2022/05/07 06:17:05;;;;;;;9.48;6.55;;;;;;;18.18;57.64;100241.22;7707766;32;37344;-74
2022/05/07 06:21:21;;;;;;;9.60;6.93;;;;;;;18.27;56.85;100241.28;7708043;32;39850;-74
2022/05/07 06:30:12;;;;;;;9.32;5.75;;;;;;;18.85;53.51;100255.34;7711051;32;37966;-78
2022/05/07 06:34:28;;;;;;;8.77;5.47;;;;;;;19.34;52.32;100247.94;7710918;32;37833;-77
2022/05/07 06:38:45;;;;;;;9.63;5.37;;;;;;;19.49;51.42;100244.75;7710193;32;40100;-78
2022/05/07 06:43:01;;;;;;;9.10;5.43;;;;;;;19.70;49.45;100250.50;7710647;32;40817;-77
2022/05/07 06:47:17;;;;;;;10.68;5.12;;;;;;;20.14;50.59;100242.25;7710499;32;38132;-78
2022/05/07 06:51:35;;;;;;;10.10;5.65;;;;;;;20.14;47.58;100245.03;7710751;32;37221;-71
2022/05/07 06:55:58;;;;;;;10.68;4.90;;;;;;;20.45;46.94;100246.81;7710417;32;40162;-72
2022/05/07 07:00:15;;;;;;;9.63;5.28;;;;;;;20.48;44.17;100251.72;7710496;32;39955;-72
2022/05/07 07:04:31;;;;;;;9.75;5.32;;;;;;;20.33;43.86;100243.91;7710136;32;38089;-71
2022/05/07 07:08:48;;;;;;;9.32;5.05;;;;;;;20.45;44.78;100247.66;7710127;32;38157;-71
2022/05/07 07:13:04;;;;;;;8.88;5.87;;;;;;;20.69;45.22;100249.09;7710160;32;39340;-71
2022/05/07 07:17:23;;;;;;;9.68;5.50;;;;;;;20.65;44.33;100250.09;7710015;32;40952;-71
2022/05/07 07:21:39;;;;;;;7.35;4.95;;;;;;;20.89;42.70;100250.37;7709895;32;37975;-71
2022/05/07 07:25:55;;;;;;;8.77;4.97;;;;;;;20.81;43.99;100248.41;7709856;32;37147;-72
2022/05/07 07:30:11;;;;;;;7.95;4.60;;;;;;;21.09;43.33;100250.78;7709668;32;38578;-72
2022/05/07 07:34:27;;;;;;;7.22;4.78;;;;;;;21.12;42.67;100255.66;7709452;32;39770;-72
2022/05/07 07:38:43;;;;;;;8.77;5.03;;;;;;;21.08;42.91;100246.41;7709354;32;37999;-83
2022/05/07 07:43:00;;;;;;;8.65;4.95;;;;;;;20.87;43.14;100263.75;7708188;32;37282;-82
2022/05/07 07:51:51;;;;;;;8.80;5.28;;;;;;;21.45;42.29;100263.38;7710310;32;39960;-80
2022/05/07 07:56:12;;;;;;;7.65;5.28;;;;;;;21.55;41.99;100257.47;7711604;32;39143;-82
2022/05/07 08:00:31;;;;;;;7.30;4.70;;;;;;;21.66;40.63;100260.66;7711795;32;37005;-81
2022/05/07 08:04:53;;;;;;;7.47;4.50;;;;;;;21.28;41.74;100256.72;7712641;32;39962;-72
2022/05/07 08:13:46;;;;;;;9.82;4.93;;;;;;;21.59;41.41;100263.16;7712519;32;38043;-73
2022/05/07 08:18:05;;;;;;;8.50;4.60;;;;;;;22.23;41.78;100262.06;7712685;32;35999;-73
2022/05/07 08:22:21;;;;;;;9.98;5.18;;;;;;;22.13;41.83;100257.75;7712350;32;39152;-72
2022/05/07 08:26:37;;;;;;;10.85;5.35;;;;;;;21.97;41.89;100267.81;7712425;32;40707;-73
2022/05/07 08:30:53;;;;;;;9.00;5.03;;;;;;;21.74;40.11;100268.94;7712192;32;37640;-73
2022/05/07 08:35:11;;;;;;;7.35;5.00;;;;;;;22.30;40.86;100263.19;7712241;32;36129;-73
2022/05/07 08:39:31;;;;;;;8.27;5.05;;;;;;;22.31;41.16;100272.34;7687650;32;803654;-73
2022/05/07 08:43:47;;;;;;;9.43;5.00;;;;;;;22.34;41.17;100277.22;7712025;32;39654;-73
2022/05/07 08:48:03;;;;;;;9.13;4.82;;;;;;;22.57;40.26;100282.41;7710731;32;37736;-72
2022/05/07 08:52:24;;;;;;;12.02;5.45;;;;;;;22.72;39.79;100276.22;7711968;32;36804;-72
2022/05/07 08:56:40;;;;;;;8.05;5.28;;;;;;;22.30;41.14;100277.09;7712049;32;40043;-72
2022/05/07 09:00:57;;;;;;;9.43;5.12;;;;;;;22.43;40.05;100280.72;7712022;32;39921;-80
2022/05/07 09:05:15;;;;;;;9.05;5.40;;;;;;;22.37;40.72;100284.03;7711242;32;38837;-72
2022/05/07 09:09:31;;;;;;;8.63;5.30;;;;;;;22.75;40.89;100286.66;7711840;32;37382;-79
2022/05/07 09:13:58;;;;;;;7.35;5.18;;;;;;;22.74;41.38;100287.81;7711973;32;39353;-80
2022/05/07 09:18:16;;;;;;;9.18;5.55;;;;;;;22.96;40.84;100283.00;7710863;32;40834;-73
2022/05/07 09:22:32;;;;;;;11.55;5.10;;;;;;;22.59;40.69;100280.91;7711724;32;37934;-74
2022/05/07 09:26:48;;;;;;;9.05;5.53;;;;;;;23.29;40.85;100282.97;7711839;32;37071;-72
2022/05/07 09:31:05;;;;;;;9.60;5.68;;;;;;;23.42;39.59;100278.22;7711831;32;39985;-73
2022/05/07 09:40:08;;;;;;;7.15;5.07;;;;;;;23.52;40.49;100277.78;7711560;32;38058;-72
2022/05/07 09:44:26;;;;;;;9.38;5.78;;;;;;;23.60;39.39;100264.91;7711664;32;37828;-72
2022/05/07 09:48:44;;;;;;;9.60;5.65;;;;;;;23.02;39.95;100270.50;7710254;32;38344;-73
2022/05/07 09:57:38;;;;;;;9.27;5.28;;;;;;;23.89;38.78;100258.31;7711379;32;38055;-73
2022/05/07 10:02:28;;;;;;;22.55;5.43;;;;;;;23.65;37.16;100253.53;7711370;32;37863;-79
2022/05/07 10:07:09;;;;;;;8.50;5.07;;;;;;;23.50;39.74;100252.28;7711290;32;39349;-70
2022/05/07 10:11:26;;;;;;;9.18;5.22;;;;;;;23.10;40.68;100238.25;7711398;32;39653;-70
2022/05/07 10:15:44;;;;;;;10.18;4.87;;;;;;;23.45;38.49;100241.38;7709951;32;38775;-70
2022/05/07 10:20:09;;;;;;;9.77;4.70;;;;;;;23.50;39.95;100235.56;7710082;32;37131;-69
2022/05/07 10:24:25;;;;;;;9.70;5.07;;;;;;;24.12;38.16;100221.59;7711206;32;39933;-70
2022/05/07 10:28:42;;;;;;;10.82;5.25;;;;;;;24.37;38.56;100223.13;7710935;32;40987;-70
2022/05/07 10:33:01;;;;;;;9.27;4.45;;;;;;;24.53;36.81;100223.16;7710769;32;38059;-69
2022/05/07 10:37:18;;;;;;;7.82;4.70;;;;;;;24.59;36.24;100220.94;7710947;32;37373;-69
2022/05/07 10:41:46;;;;;;;6.65;4.70;;;;;;;24.23;36.08;100222.69;7710822;32;40228;-70
2022/05/07 10:46:09;;;;;;;6.95;4.87;;;;;;;24.26;36.45;100226.75;7710740;32;40962;-71
2022/05/07 10:50:37;;;;;;;7.45;4.93;;;;;;;24.45;36.16;100210.19;7710504;32;38547;-70
2022/05/07 10:55:03;;;;;;;7.43;4.65;;;;;;;23.97;36.83;100215.59;7710576;32;37710;-69
2022/05/07 10:59:21;;;;;;;7.62;4.40;;;;;;;24.36;36.08;100209.53;7710688;32;39094;-70
2022/05/07 11:03:37;;;;;;;7.53;4.35;;;;;;;25.07;35.87;100198.69;7710202;32;39893;-70
2022/05/07 11:07:58;;;;;;;5.72;4.20;;;;;;;25.62;34.49;100196.03;7710055;32;39189;-70
2022/05/07 11:12:18;;;;;;;9.48;4.53;;;;;;;25.65;32.33;100203.69;7710232;32;37050;-70
2022/05/07 11:16:40;;;;;;;8.32;4.50;;;;;;;25.44;36.10;100202.03;7709852;32;39577;-70
2022/05/07 11:21:03;;;;;;;9.07;4.62;;;;;;;25.15;33.56;100200.50;7708832;32;40002;-70
2022/05/07 11:25:24;;;;;;;8.23;4.62;;;;;;;25.60;33.24;100195.59;7710541;32;38743;-70
2022/05/07 11:29:40;;;;;;;7.93;3.97;;;;;;;25.02;33.82;100185.81;7713097;32;37111;-70
2022/05/07 11:34:11;;;;;;;9.13;4.90;;;;;;;25.19;34.09;100186.63;7713227;32;40041;-72
2022/05/07 11:38:28;;;;;;;8.20;4.30;;;;;;;25.65;33.88;100181.38;7713087;32;39947;-72
2022/05/07 11:42:46;;;;;;;8.55;4.60;;;;;;;25.28;34.75;100181.69;7712902;32;38796;-72
2022/05/07 11:47:22;;;;;;;6.35;4.00;;;;;;;25.55;32.78;100184.72;7725382;32;36720;-73
2022/05/07 11:51:38;;;;;;;5.90;4.25;;;;;;;25.58;32.96;100178.41;7738578;32;39495;-72
2022/05/07 11:56:08;;;;;;;9.30;3.83;;;;;;;25.31;32.81;100180.97;7712504;32;40730;-71
2022/05/07 12:00:26;;;;;;;6.20;3.83;;;;;;;25.85;32.19;100171.84;7733512;32;38616;-72
2022/05/07 12:04:43;;;;;;;6.22;3.40;;;;;;;25.94;31.76;100162.41;7739259;32;36409;-73
2022/05/07 12:09:09;;;;;;;6.10;3.50;;;;;;;25.98;31.61;100157.75;7739276;32;39470;-73
2022/05/07 12:13:25;;;;;;;8.73;5.10;;;;;;;26.57;31.47;100161.28;7715896;32;39919;-74
2022/05/07 12:17:55;;;;;;;14.07;4.45;;;;;;;27.42;32.73;100154.72;7721214;32;38039;-73
2022/05/07 12:31:20;;;;;;;7.43;4.10;;;;;;;26.96;31.93;100145.22;7711426;32;40941;-82
2022/05/07 12:35:36;;;;;;;7.47;4.30;;;;;;;27.11;30.90;100139.84;7714096;32;37876;-82
2022/05/07 12:39:52;;;;;;;6.65;4.10;;;;;;;27.40;30.19;100140.31;7738466;32;37750;-85
2022/05/07 12:44:08;;;;;;;5.93;3.65;;;;;;;27.06;30.47;100137.34;7725261;32;39240;-85
2022/05/07 12:48:24;;;;;;;5.93;3.83;;;;;;;26.69;32.05;100124.78;7738957;32;39948;-85
2022/05/07 12:52:40;;;;;;;3.87;3.10;;;;;;;26.76;29.48;100119.31;7738818;32;38655;-85
2022/05/07 12:56:56;;;;;;;7.62;3.90;;;;;;;26.47;29.08;100122.75;7738784;32;37004;-81
2022/05/07 13:01:12;;;;;;;5.70;3.60;;;;;;;27.48;29.46;100112.03;7738412;32;40076;-71
2022/05/07 13:05:30;;;;;;;5.55;3.50;;;;;;;27.04;29.35;100118.16;7736842;32;40863;-72
2022/05/07 13:10:06;;;;;;;8.48;4.15;;;;;;;27.63;28.54;100104.63;7737426;32;38067;-77
2022/05/07 13:14:24;;;;;;;6.62;3.55;;;;;;;28.23;28.22;100098.13;7738541;32;37065;-78
2022/05/07 13:18:40;;;;;;;5.57;3.10;;;;;;;28.42;27.23;100083.12;7738395;32;40310;-77
2022/05/07 13:22:57;;;;;;;6.90;3.10;;;;;;;28.87;26.87;100076.69;7736156;32;40056;-77
2022/05/07 13:27:13;;;;;;;10.20;3.50;;;;;;;29.15;26.29;100076.91;7721318;32;38092;-77
2022/05/07 13:31:29;;;;;;;6.68;3.30;;;;;;;29.36;24.96;100067.81;7711433;32;37310;-77
2022/05/07 13:35:47;;;;;;;10.55;3.47;;;;;;;29.08;26.48;100073.22;7711525;32;39135;-77
2022/05/07 13:40:03;;;;;;;6.40;3.15;;;;;;;29.48;27.00;100063.87;7711258;32;39975;-77
2022/05/07 13:44:20;;;;;;;6.00;3.35;;;;;;;29.99;24.16;100058.44;7710266;32;38558;-78
2022/05/07 13:48:36;;;;;;;8.68;3.33;;;;;;;29.96;24.41;100058.03;7711309;32;36981;-78
2022/05/07 13:52:55;;;;;;;5.43;3.00;;;;;;;30.32;25.51;100049.66;7711535;32;39017;-78
2022/05/07 13:57:11;;;;;;;5.37;3.25;;;;;;;30.37;25.54;100044.88;7711346;32;40631;-75
2022/05/07 14:01:28;;;;;;;4.57;3.20;;;;;;;30.34;25.27;100041.63;7711342;32;38509;-78
2022/05/07 14:05:44;;;;;;;4.07;3.00;;;;;;;31.11;24.15;100036.78;7709940;32;37563;-78
2022/05/07 14:10:07;;;;;;;6.82;3.33;;;;;;;30.98;23.31;100039.25;7711275;32;39067;-78
2022/05/07 14:14:25;;;;;;;5.50;3.20;;;;;;;31.12;23.72;100033.56;7711211;32;39850;-78
2022/05/07 14:18:41;;;;;;;5.35;3.47;;;;;;;30.63;25.15;100030.41;7711262;32;37712;-78
2022/05/07 14:22:57;;;;;;;9.13;3.37;;;;;;;30.20;24.36;100024.75;7737904;32;37608;-77
2022/05/07 14:27:13;;;;;;;6.72;3.87;;;;;;;29.70;25.54;100019.81;7720133;32;39804;-77
2022/05/07 14:31:30;;;;;;;6.70;3.20;;;;;;;29.12;27.22;100015.94;7710622;32;40551;-78
2022/05/07 14:35:48;;;;;;;4.95;3.50;;;;;;;29.13;28.23;100019.53;7710818;32;38739;-77
2022/05/07 14:44:39;;;;;;;6.97;3.62;;;;;;;27.14;28.88;100018.78;7737384;32;39056;-78
2022/05/07 14:48:55;;;;;;;6.62;3.87;;;;;;;26.84;29.68;100021.53;7716734;32;39732;-77
2022/05/07 14:53:12;;;;;;;6.95;4.30;;;;;;;26.45;30.83;100013.31;7710602;32;38586;-77
2022/05/07 14:57:29;;;;;;;16.23;9.60;;;;;;;26.40;30.87;100017.22;7710432;32;37550;-77
2022/05/07 15:01:46;;;;;;;6.35;3.80;;;;;;;26.48;30.97;100018.16;7709656;32;38999;-77
2022/05/07 15:06:03;;;;;;;8.43;4.30;;;;;;;26.53;31.29;100015.84;7710005;32;39991;-77
2022/05/07 15:10:37;;;;;;;7.95;4.93;;;;;;;26.04;31.56;100013.81;7709894;32;37881;-77
2022/05/07 15:14:57;;;;;;;10.43;5.35;;;;;;;26.09;32.22;100021.88;7718541;32;37164;-76
2022/05/07 15:19:14;;;;;;;6.05;4.10;;;;;;;25.63;34.26;100013.41;7736614;32;39409;-77
2022/05/07 15:23:30;;;;;;;8.60;3.97;;;;;;;25.44;34.57;100017.00;7719432;32;40769;-77
2022/05/07 15:27:48;;;;;;;7.40;4.28;;;;;;;25.44;32.48;100023.41;7709732;32;37644;-76
2022/05/07 15:36:54;;;;;;;11.38;4.00;;;;;;;25.32;33.96;100026.34;7720396;32;39304;-77
2022/05/07 15:41:10;;;;;;;6.40;3.80;;;;;;;25.09;33.12;100029.81;7719589;32;40023;-77
2022/05/07 15:45:26;;;;;;;7.18;4.03;;;;;;;25.14;32.95;100019.53;7709217;32;38904;-76
2022/05/07 15:49:46;;;;;;;6.78;4.20;;;;;;;25.23;32.63;100017.34;7709173;32;37045;-77
2022/05/07 15:54:02;;;;;;;9.57;4.75;;;;;;;24.94;33.99;100013.94;7734271;32;38823;-76
2022/05/07 15:58:18;;;;;;;16.55;5.30;;;;;;;25.08;34.77;100005.09;7735022;32;40942;-74
2022/05/07 16:02:34;;;;;;;10.07;4.32;;;;;;;24.84;34.41;100008.94;7735483;32;36737;-76
2022/05/07 16:06:50;;;;;;;7.32;4.93;;;;;;;24.91;35.05;100006.28;7735642;32;37178;-77
2022/05/07 16:11:25;;;;;;;12.30;4.95;;;;;;;24.95;36.05;100007.16;7721635;32;39299;-77
2022/05/07 16:15:43;;;;;;;10.35;5.20;;;;;;;24.93;35.25;100001.97;7714935;32;40830;-77
2022/05/07 16:19:59;;;;;;;10.70;4.87;;;;;;;24.83;34.27;99996.16;7738651;32;37009;-77
2022/05/07 16:28:51;;;;;;;7.37;4.78;;;;;;;24.66;35.60;100009.28;7729832;32;39658;-77
2022/05/07 16:33:07;;;;;;;6.93;4.37;;;;;;;24.33;36.56;100004.88;7712110;32;39951;-77
2022/05/07 16:37:23;;;;;;;8.57;4.80;;;;;;;24.40;36.30;100020.16;7712074;32;39166;-77
2022/05/07 16:41:39;;;;;;;8.32;4.50;;;;;;;24.50;35.19;100019.63;7712206;32;37261;-76
2022/05/07 16:45:55;;;;;;;7.28;4.35;;;;;;;24.19;35.87;100019.25;7712170;32;40132;-76
2022/05/07 16:50:11;;;;;;;7.78;4.60;;;;;;;24.09;35.91;100027.34;7711960;32;40793;-76
2022/05/07 16:54:27;;;;;;;8.98;4.37;;;;;;;24.05;35.13;100020.88;7710603;32;39155;-77
2022/05/07 16:58:43;;;;;;;9.23;4.57;;;;;;;23.77;36.33;100035.62;7711281;32;36769;-78
2022/05/07 17:02:59;;;;;;;14.43;5.43;;;;;;;23.74;38.70;100041.88;7710469;32;39768;-75
2022/05/07 17:07:16;;;;;;;9.07;5.28;;;;;;;23.35;40.67;100047.94;7711730;32;39739;-75
2022/05/07 17:11:32;;;;;;;7.53;4.82;;;;;;;23.02;41.35;100051.66;7711528;32;38044;-76
2022/05/07 17:15:49;;;;;;;7.30;5.00;;;;;;;22.65;41.08;100068.38;7711696;32;37673;-76
2022/05/07 17:20:06;;;;;;;9.38;4.57;;;;;;;22.79;39.66;100068.03;7711643;32;39030;-77
2022/05/07 17:24:22;;;;;;;10.43;4.70;;;;;;;22.10;41.23;100083.53;7709996;32;39919;-73
2022/05/07 17:28:45;;;;;;;;;;;;;;;21.81;41.50;100095.56;7711724;32;37683;-73
2022/05/07 17:33:02;;;;;;;45.38;24.75;;;;;;;21.59;43.36;100097.53;7713416;32;36578;-72
2022/05/07 17:37:18;;;;;;;14.63;8.75;;;;;;;20.78;45.16;100096.69;7712114;32;39612;-72
2022/05/07 17:41:36;;;;;;;23.55;15.43;;;;;;;20.95;45.12;100110.47;7725978;32;39928;-73
2022/05/07 17:45:53;;;;;;;8.98;5.50;;;;;;;20.72;46.08;100117.44;7734347;32;37813;-73
2022/05/07 17:50:13;;;;;;;7.43;4.90;;;;;;;20.16;47.62;100129.28;7715226;32;37389;-73
2022/05/07 17:54:30;;;;;;;8.38;5.12;;;;;;;19.99;47.94;100129.28;7722813;32;39846;-73
2022/05/07 17:58:46;;;;;;;8.40;4.47;;;;;;;19.85;48.00;100130.28;7723617;32;40811;-71
2022/05/07 18:03:02;;;;;;;5.82;4.00;;;;;;;20.02;46.64;100131.41;7738190;32;36439;-71
2022/05/07 18:07:18;;;;;;;7.80;4.10;;;;;;;19.64;47.07;100129.28;7723767;32;37605;-71
2022/05/07 18:11:34;;;;;;;7.72;3.83;;;;;;;19.91;47.06;100135.66;7711191;32;40052;-72
2022/05/07 18:15:50;;;;;;;6.70;3.78;;;;;;;19.43;48.59;100134.63;7713147;32;39864;-73
2022/05/07 18:20:13;;;;;;;8.77;4.37;;;;;;;19.47;48.87;100155.78;7722371;32;38121;-69
2022/05/07 18:24:29;;;;;;;6.20;3.60;;;;;;;19.35;49.54;100163.06;7711746;32;36978;-72
2022/05/07 18:28:46;;;;;;;9.68;4.20;;;;;;;19.82;47.49;100166.91;7719940;32;39310;-72
2022/05/07 18:33:05;;;;;;;5.68;3.55;;;;;;;19.63;48.38;100171.91;7708027;32;40845;-73
2022/05/07 18:46:38;;;;;;;8.05;3.87;;;;;;;19.65;48.80;100191.75;7721192;32;39419;-71
2022/05/07 18:50:55;;;;;;;8.57;3.75;;;;;;;19.80;48.79;100198.78;7720922;32;40718;-70
2022/05/07 18:59:47;;;;;;;14.63;7.75;;;;;;;19.51;50.67;100212.06;7719262;32;37146;-72
2022/05/07 19:04:03;;;;;;;18.02;6.18;;;;;;;19.36;50.75;100217.22;7720133;32;40091;-73
2022/05/07 19:08:20;;;;;;;11.90;4.60;;;;;;;19.41;50.89;100222.59;7722237;32;38799;-73
2022/05/07 19:12:38;;;;;;;7.15;4.32;;;;;;;19.43;50.95;100228.62;7723935;32;37968;-72
2022/05/07 19:16:54;;;;;;;9.02;4.45;;;;;;;19.37;50.84;100235.41;7720020;32;38213;-73
2022/05/07 19:21:10;;;;;;;6.85;4.05;;;;;;;19.54;50.27;100231.91;7719843;32;39013;-72
2022/05/07 19:25:30;;;;;;;7.80;4.25;;;;;;;19.59;50.01;100238.13;7720358;32;39951;-73
2022/05/07 19:29:47;;;;;;;8.35;4.32;;;;;;;19.05;51.34;100246.50;7719555;32;37925;-72
2022/05/07 19:34:05;;;;;;;8.40;4.72;;;;;;;19.36;51.08;100253.16;7718541;32;35592;-72
2022/05/07 19:38:22;;;;;;;10.27;4.57;;;;;;;19.18;51.84;100264.16;7718826;32;39494;-73
2022/05/07 19:42:39;;;;;;;6.80;4.60;;;;;;;18.70;53.45;100262.88;7717991;32;40855;-72
2022/05/07 19:46:55;;;;;;;8.70;4.68;;;;;;;18.89;52.45;100268.22;7722468;32;38544;-73
2022/05/07 19:51:12;;;;;;;8.07;4.95;;;;;;;18.79;52.78;100265.69;7721873;32;37131;-73
2022/05/07 19:55:29;;;;;;;8.02;4.50;;;;;;;18.73;53.00;100269.69;7723560;32;39892;-72
2022/05/07 19:59:45;;;;;;;11.65;4.75;;;;;;;18.35;54.27;100268.13;7723295;32;39931;-73
2022/05/07 20:04:01;;;;;;;6.80;4.03;;;;;;;18.34;54.09;100265.69;7722599;32;37629;-72
2022/05/07 20:08:20;;;;;;;9.30;5.05;;;;;;;18.10;54.82;100268.72;7709980;32;36777;-72
2022/05/07 20:12:36;;;;;;;8.52;4.97;;;;;;;18.16;54.95;100264.72;7709602;32;39391;-73
2022/05/07 20:16:56;;;;;;;11.63;5.10;;;;;;;17.87;56.00;100265.91;7709752;32;40775;-72
2022/05/07 20:25:48;;;;;;;7.80;5.00;;;;;;;17.91;55.99;100269.69;7722063;32;37794;-73
2022/05/07 20:30:11;;;;;;;8.85;4.80;;;;;;;17.98;55.76;100272.81;7724856;32;38901;-73
2022/05/07 20:34:27;;;;;;;8.80;4.62;;;;;;;18.10;55.16;100272.28;7709648;32;40731;-72
2022/05/07 20:38:44;;;;;;;8.30;5.20;;;;;;;17.87;55.76;100265.91;7710026;32;38583;-72
2022/05/07 20:46:25;;;;;;;14.77;5.10;;;;;;;17.90;55.56;100270.81;7710226;32;37338;-73
2022/05/07 20:47:38;;;;;;;8.77;4.90;;;;;;;17.78;55.63;100270.47;7709935;32;40026;-73
2022/05/07 20:51:54;;;;;;;7.70;4.85;;;;;;;17.69;55.71;100267.63;7709598;32;41110;-73
2022/05/07 20:56:14;;;;;;;8.85;4.50;;;;;;;17.82;55.25;100266.00;7712336;32;38718;-73
2022/05/07 21:00:34;;;;;;;;;;;;;;;17.88;54.79;100267.53;7722356;32;37049;-73
2022/05/07 21:04:50;;;;;;;7.75;5.12;;;;;;;18.04;54.37;100261.69;7722968;32;40429;-73
2022/05/07 21:09:06;;;;;;;6.12;4.50;;;;;;;17.54;55.66;100263.28;7723683;32;39532;-73
2022/05/07 21:13:23;;;;;;;7.22;4.72;;;;;;;17.56;55.62;100272.03;7722076;32;38675;-74